SBAT

Alta Floresta Airport

Airport
ICAO code
SBAT
IATA Code
AFL
Summary
ICAO Region
CARSAM
ICAO Territory
Location

Alta Floresta, Mato Grosso

Serving
Alta Floresta
Elevation
947 ft
Coordinates
9° 51' 59" S , 56° 6' 18" W
KCC
Metar
SBAT 191900Z 11006KT 9999 FEW040 36/15 Q1011

Piloto Osvaldo Marques Dias Airport is the airport serving Alta Floresta, Brazil.

Climatology

Tropical savanna climate (Köppen climate classification Aw)

Runways

Designator Length Width Surface Rops
3/21 2500 30 ASP No/No

Airport map

Aerial View

SKYbrary Partners:

Safety knowledge contributed by: